createdAt,value
2018-10-21T00:00:19.808Z,14.33
2018-10-21T00:02:55.382Z,14.70
2018-10-21T00:05:30.948Z,15.88
2018-10-21T00:08:06.544Z,14.65
2018-10-21T00:10:42.004Z,18.37
2018-10-21T00:13:17.441Z,15.50
2018-10-21T00:15:52.953Z,13.68
2018-10-21T00:18:28.809Z,15.03
2018-10-21T00:21:04.518Z,14.03
2018-10-21T00:23:39.989Z,14.55
2018-10-21T00:26:15.328Z,13.75
2018-10-21T00:28:50.851Z,14.73
2018-10-21T00:31:26.282Z,17.30
2018-10-21T00:34:01.721Z,14.05
2018-10-21T00:36:37.048Z,16.17
2018-10-21T00:39:13.821Z,16.12
2018-10-21T00:41:49.209Z,15.08
2018-10-21T00:44:24.588Z,16.85
2018-10-21T00:47:00.028Z,14.35
2018-10-21T00:49:35.772Z,14.13
2018-10-21T00:52:11.244Z,14.93
2018-10-21T00:54:46.831Z,14.35
2018-10-21T00:57:22.269Z,13.43
2018-10-21T00:59:57.692Z,14.45
2018-10-21T01:02:33.136Z,14.25
2018-10-21T01:05:10.153Z,13.90
2018-10-21T01:07:45.522Z,14.98
2018-10-21T01:10:21.025Z,13.60
2018-10-21T01:12:56.245Z,14.50
2018-10-21T01:15:31.769Z,14.70
2018-10-21T01:18:07.273Z,14.13
2018-10-21T01:20:42.956Z,14.90
2018-10-21T01:23:18.498Z,14.43
2018-10-21T01:25:54.025Z,13.90
2018-10-21T01:28:29.482Z,13.60
2018-10-21T01:31:05.133Z,15.20
2018-10-21T01:33:40.540Z,14.50
2018-10-21T01:36:16.046Z,16.97
2018-10-21T01:38:51.296Z,15.70
2018-10-21T01:41:26.720Z,17.12
2018-10-21T01:44:01.954Z,14.90
2018-10-21T01:46:37.617Z,16.97
2018-10-21T01:49:13.055Z,15.93
2018-10-21T01:51:48.500Z,17.23
2018-10-21T01:54:26.186Z,17.25
2018-10-21T01:57:01.776Z,17.85
2018-10-21T01:59:37.275Z,18.45
2018-10-21T02:02:12.921Z,17.45
2018-10-21T02:04:48.216Z,19.02
2018-10-21T02:07:23.959Z,18.50
2018-10-21T02:09:59.266Z,18.05
2018-10-21T02:12:34.677Z,17.95
2018-10-21T02:15:11.342Z,20.08
2018-10-21T02:17:46.713Z,19.20
2018-10-21T02:20:22.652Z,20.25
2018-10-21T02:22:58.246Z,20.12
2018-10-21T02:25:33.736Z,22.65
2018-10-21T02:28:09.584Z,21.87
2018-10-21T02:30:44.917Z,23.62
2018-10-21T02:33:20.627Z,22.80
2018-10-21T02:35:56.017Z,22.67
2018-10-21T02:38:31.614Z,24.80
2018-10-21T02:42:02.037Z,24.70
2018-10-21T02:44:37.595Z,25.12
2018-10-21T02:47:12.937Z,25.05
2018-10-21T02:49:49.505Z,25.02
2018-10-21T02:52:24.840Z,24.40
2018-10-21T02:55:00.905Z,25.15
2018-10-21T02:57:36.141Z,25.45
2018-10-21T03:00:11.894Z,26.35
2018-10-21T03:02:47.133Z,26.57
2018-10-21T03:05:22.609Z,24.95
2018-10-21T03:07:58.353Z,26.25
2018-10-21T03:10:33.835Z,27.75
2018-10-21T03:13:09.049Z,27.50
2018-10-21T03:15:44.582Z,25.80
2018-10-21T03:18:20.108Z,28.30
2018-10-21T03:20:56.095Z,27.62
2018-10-21T03:23:31.706Z,28.77
2018-10-21T03:26:07.301Z,30.12
2018-10-21T03:28:42.467Z,28.98
2018-10-21T03:31:18.076Z,28.65
2018-10-21T03:33:53.582Z,30.30
2018-10-21T03:36:29.168Z,29.18
2018-10-21T03:39:06.910Z,29.05
2018-10-21T03:41:42.300Z,29.25
2018-10-21T03:44:17.733Z,26.68
2018-10-21T03:46:53.177Z,27.20
2018-10-21T03:49:28.853Z,28.95
2018-10-21T03:52:04.399Z,28.70
2018-10-21T03:54:43.799Z,27.67
2018-10-21T03:57:19.374Z,27.45
2018-10-21T03:59:54.585Z,28.60
2018-10-21T04:02:30.585Z,28.40
2018-10-21T04:05:06.089Z,27.17
2018-10-21T04:07:41.877Z,28.07
2018-10-21T04:10:17.362Z,27.98
2018-10-21T04:12:52.964Z,26.70
2018-10-21T04:15:28.299Z,27.42
2018-10-21T04:18:03.677Z,28.92
2018-10-21T04:20:38.964Z,27.32
2018-10-21T04:23:14.651Z,28.27
2018-10-21T04:25:50.126Z,26.20
2018-10-21T04:28:25.658Z,27.25
2018-10-21T04:31:00.904Z,26.68
2018-10-21T04:33:43.447Z,26.97
2018-10-21T04:36:30.728Z,26.55
2018-10-21T04:39:23.183Z,26.85
2018-10-21T04:41:58.686Z,26.73
2018-10-21T04:44:34.249Z,27.98
2018-10-21T04:47:09.883Z,26.97
2018-10-21T04:49:45.354Z,25.05
2018-10-21T04:52:20.821Z,24.75
2018-10-21T04:55:00.341Z,26.40
2018-10-21T04:57:36.846Z,26.50
2018-10-21T05:00:14.314Z,26.07
2018-10-21T05:02:49.664Z,25.02
2018-10-21T05:05:25.397Z,24.47
2018-10-21T05:08:00.692Z,24.25
2018-10-21T05:10:37.208Z,26.07
2018-10-21T05:13:12.533Z,24.55
2018-10-21T05:15:48.018Z,24.57
2018-10-21T05:18:23.233Z,26.35
2018-10-21T05:20:58.716Z,25.55
2018-10-21T05:23:34.010Z,25.37
2018-10-21T05:26:09.771Z,25.48
2018-10-21T05:28:45.226Z,26.55
2018-10-21T05:31:20.716Z,26.70
2018-10-21T05:33:55.989Z,25.45
2018-10-21T05:36:31.432Z,24.37
2018-10-21T05:39:10.156Z,25.43
2018-10-21T05:41:45.612Z,23.95
2018-10-21T05:44:21.121Z,27.82
2018-10-21T05:46:56.545Z,26.35
2018-10-21T05:49:32.334Z,27.40
2018-10-21T05:52:08.083Z,26.20
2018-10-21T05:54:44.175Z,26.37
2018-10-21T05:57:19.615Z,25.77
2018-10-21T05:59:55.117Z,29.05
2018-10-21T06:02:30.717Z,29.70
2018-10-21T06:05:16.647Z,28.20
2018-10-21T06:07:52.154Z,28.12
2018-10-21T06:10:34.383Z,25.75
2018-10-21T06:13:10.122Z,28.40
2018-10-21T06:15:45.533Z,28.10
2018-10-21T06:18:22.766Z,29.98
2018-10-21T06:21:00.620Z,31.93
2018-10-21T06:23:36.165Z,31.90
2018-10-21T06:26:11.533Z,31.57
2018-10-21T06:28:47.001Z,33.00
2018-10-21T06:31:22.436Z,33.10
2018-10-21T06:33:57.837Z,36.23
2018-10-21T06:36:33.260Z,33.40
2018-10-21T06:39:09.310Z,35.08
2018-10-21T06:41:44.632Z,32.45
2018-10-21T06:44:19.999Z,36.70
2018-10-21T06:46:55.489Z,34.03
2018-10-21T06:49:31.460Z,34.92
2018-10-21T06:52:07.041Z,36.03
2018-10-21T06:54:49.319Z,35.20
2018-10-21T06:57:24.768Z,36.95
2018-10-21T07:00:00.320Z,36.23
2018-10-21T07:02:35.785Z,36.35
2018-10-21T07:05:28.313Z,36.65
2018-10-21T07:08:03.698Z,35.83
2018-10-21T07:10:39.181Z,35.60
2018-10-21T07:13:14.654Z,37.65
2018-10-21T07:15:50.224Z,35.63
2018-10-21T07:18:25.389Z,36.42
2018-10-21T07:21:00.872Z,36.75
2018-10-21T07:23:36.325Z,38.45
2018-10-21T07:26:11.732Z,36.80
2018-10-21T07:28:46.989Z,38.65
2018-10-21T07:31:22.469Z,37.15
2018-10-21T07:33:57.680Z,36.58
2018-10-21T07:36:33.129Z,39.10
2018-10-21T07:39:10.516Z,37.05
2018-10-21T07:41:46.175Z,36.93
2018-10-21T07:44:21.557Z,35.92
2018-10-21T07:46:57.202Z,36.83
2018-10-21T07:49:32.848Z,36.77
2018-10-21T07:52:08.445Z,37.55
2018-10-21T07:54:46.038Z,37.05
2018-10-21T07:57:21.732Z,36.93
2018-10-21T07:59:57.084Z,34.95
2018-10-21T08:02:32.544Z,35.03
2018-10-21T08:05:12.496Z,34.55
2018-10-21T08:08:12.776Z,37.85
2018-10-21T08:10:48.074Z,34.58
2018-10-21T08:13:25.021Z,36.80
2018-10-21T08:16:00.620Z,37.75
2018-10-21T08:18:35.976Z,35.43
2018-10-21T08:21:11.318Z,36.00
2018-10-21T08:23:46.805Z,35.17
2018-10-21T08:26:22.021Z,37.20
2018-10-21T08:28:57.537Z,37.85
2018-10-21T08:31:33.036Z,35.45
2018-10-21T08:34:08.694Z,36.23
2018-10-21T08:36:44.100Z,35.58
2018-10-21T08:39:19.583Z,37.67
2018-10-21T08:41:54.968Z,37.90
2018-10-21T08:44:30.605Z,37.85
2018-10-21T08:47:06.205Z,38.05
2018-10-21T08:49:41.843Z,37.70
2018-10-21T08:52:17.291Z,39.48
2018-10-21T08:54:52.961Z,39.38
2018-10-21T08:57:28.356Z,40.33
2018-10-21T09:00:03.847Z,41.05
2018-10-21T09:02:39.469Z,41.63
2018-10-21T09:05:17.276Z,40.55
2018-10-21T09:07:52.708Z,40.52
2018-10-21T09:10:28.438Z,39.53
2018-10-21T09:13:03.769Z,38.75
2018-10-21T09:15:39.776Z,36.65
2018-10-21T09:18:15.109Z,39.95
2018-10-21T09:20:50.564Z,38.38
2018-10-21T09:23:25.822Z,37.83
2018-10-21T09:26:01.213Z,38.67
2018-10-21T09:28:36.655Z,38.02
2018-10-21T09:31:12.213Z,38.35
2018-10-21T09:33:47.590Z,38.63
2018-10-21T09:36:23.441Z,37.85
2018-10-21T09:38:58.813Z,38.17
2018-10-21T09:41:34.485Z,37.48
2018-10-21T09:44:10.790Z,35.38
2018-10-21T09:46:46.448Z,36.25
2018-10-21T09:49:21.747Z,38.55
2018-10-21T09:51:57.566Z,35.85
2018-10-21T09:54:33.101Z,36.23
2018-10-21T09:57:08.674Z,35.28
2018-10-21T09:59:44.174Z,36.77
2018-10-21T10:02:25.270Z,34.25
2018-10-21T10:05:00.893Z,37.90
2018-10-21T10:07:36.460Z,36.35
2018-10-21T10:10:12.548Z,35.10
2018-10-21T10:12:48.289Z,35.23
2018-10-21T10:15:23.498Z,34.83
2018-10-21T10:17:58.884Z,35.03
2018-10-21T10:20:34.446Z,34.83
2018-10-21T10:23:09.962Z,34.25
2018-10-21T10:25:45.439Z,37.08
2018-10-21T10:28:21.106Z,35.35
2018-10-21T10:30:56.696Z,39.18
2018-10-21T10:33:32.263Z,35.08
2018-10-21T10:36:07.627Z,39.27
2018-10-21T10:38:43.169Z,36.98
2018-10-21T10:41:19.359Z,37.78
2018-10-21T10:43:55.370Z,34.13
2018-10-21T10:46:30.969Z,35.52
2018-10-21T10:49:08.030Z,38.08
2018-10-21T10:51:44.469Z,38.75
2018-10-21T10:54:19.853Z,36.60
2018-10-21T10:56:55.457Z,37.45
2018-10-21T10:59:30.829Z,38.58
2018-10-21T11:02:06.576Z,36.15
2018-10-21T11:04:42.042Z,34.95
2018-10-21T11:07:17.674Z,34.40
2018-10-21T11:09:53.660Z,34.18
2018-10-21T11:12:28.921Z,34.15
2018-10-21T11:15:04.481Z,35.10
2018-10-21T11:17:39.975Z,33.38
2018-10-21T11:20:15.649Z,37.10
2018-10-21T11:22:51.142Z,35.78
2018-10-21T11:25:26.578Z,34.23
2018-10-21T11:28:02.128Z,34.15
2018-10-21T11:30:37.590Z,32.25
2018-10-21T11:33:12.965Z,34.67
2018-10-21T11:35:48.446Z,34.10
2018-10-21T11:38:23.822Z,32.70
2018-10-21T11:40:59.429Z,32.48
2018-10-21T11:43:34.884Z,35.28
2018-10-21T11:46:10.446Z,37.90
2018-10-21T11:48:45.841Z,33.70
2018-10-21T11:51:21.527Z,34.58
2018-10-21T11:53:57.023Z,34.85
2018-10-21T11:56:33.378Z,32.70
2018-10-21T11:59:09.525Z,35.48
2018-10-21T12:01:45.277Z,35.85
2018-10-21T12:04:20.792Z,35.45
2018-10-21T12:06:56.405Z,32.25
2018-10-21T12:09:31.878Z,32.63
2018-10-21T12:12:07.365Z,31.30
2018-10-21T12:14:42.857Z,29.77
2018-10-21T12:17:18.320Z,29.10
2018-10-21T12:19:53.880Z,28.07
2018-10-21T12:22:29.281Z,27.98
2018-10-21T12:25:05.032Z,27.98
2018-10-21T12:27:40.529Z,25.52
2018-10-21T12:30:15.866Z,25.90
2018-10-21T12:32:51.521Z,23.95
2018-10-21T12:35:26.896Z,24.70
2018-10-21T12:38:02.517Z,24.55
2018-10-21T12:40:37.900Z,22.75
2018-10-21T12:43:14.101Z,23.30
2018-10-21T12:45:49.293Z,21.70
2018-10-21T12:48:25.865Z,21.68
2018-10-21T12:51:03.913Z,19.85
2018-10-21T12:53:39.389Z,20.02
2018-10-21T12:56:14.925Z,17.90
2018-10-21T12:58:50.489Z,20.43
2018-10-21T13:01:26.511Z,17.73
2018-10-21T13:04:02.158Z,20.12
2018-10-21T13:06:44.028Z,20.35
2018-10-21T13:09:19.745Z,20.23
2018-10-21T13:11:55.278Z,19.70
2018-10-21T13:14:30.909Z,21.42
2018-10-21T13:17:12.598Z,19.55
2018-10-21T13:19:48.241Z,23.22
2018-10-21T13:22:23.680Z,22.93
2018-10-21T13:24:59.227Z,23.10
2018-10-21T13:27:34.502Z,22.13
2018-10-21T13:30:09.957Z,21.25
2018-10-21T13:32:45.411Z,21.65
2018-10-21T13:35:20.935Z,21.80
2018-10-21T13:37:56.261Z,21.35
2018-10-21T13:40:31.771Z,19.42
2018-10-21T13:43:07.394Z,20.20
2018-10-21T13:45:42.850Z,18.62
2018-10-21T13:48:18.181Z,18.32
2018-10-21T13:50:53.924Z,18.57
2018-10-21T13:53:29.359Z,19.70
2018-10-21T13:56:04.848Z,19.30
2018-10-21T13:58:40.206Z,19.35
2018-10-21T14:01:15.734Z,20.62
2018-10-21T14:03:51.070Z,21.10
2018-10-21T14:06:26.544Z,18.55
2018-10-21T14:09:02.030Z,19.27
2018-10-21T14:11:38.000Z,22.93
2018-10-21T14:14:13.388Z,21.45
2018-10-21T14:16:49.000Z,18.57
2018-10-21T14:19:24.836Z,18.98
2018-10-21T14:22:00.379Z,16.85
2018-10-21T14:24:35.704Z,18.20
2018-10-21T14:27:11.266Z,17.07
2018-10-21T14:29:46.891Z,16.93
2018-10-21T14:32:22.356Z,17.10
2018-10-21T14:34:57.869Z,16.75
2018-10-21T14:37:33.313Z,15.83
2018-10-21T14:40:11.408Z,19.52
2018-10-21T14:42:46.909Z,17.52
2018-10-21T14:45:22.248Z,18.02
2018-10-21T14:47:57.773Z,17.95
2018-10-21T14:50:33.349Z,17.48
2018-10-21T14:53:09.016Z,17.50
2018-10-21T14:55:44.993Z,19.37
2018-10-21T14:58:20.629Z,18.00
2018-10-21T15:00:56.109Z,16.57
2018-10-21T15:03:31.708Z,17.37
2018-10-21T15:06:08.082Z,16.57
2018-10-21T15:08:43.575Z,17.02
2018-10-21T15:11:18.901Z,15.65
2018-10-21T15:13:54.495Z,17.55
2018-10-21T15:16:29.683Z,16.62
2018-10-21T15:19:05.839Z,15.25
2018-10-21T15:21:41.186Z,15.65
2018-10-21T15:24:16.825Z,14.43
2018-10-21T15:26:52.229Z,14.80
2018-10-21T15:29:28.041Z,16.85
2018-10-21T15:32:03.485Z,16.82
2018-10-21T15:34:39.167Z,15.08
2018-10-21T15:37:14.590Z,15.48
2018-10-21T15:39:50.257Z,15.20
2018-10-21T15:42:25.687Z,15.30
2018-10-21T15:45:01.121Z,16.45
2018-10-21T15:47:36.332Z,15.80
2018-10-21T15:50:12.252Z,16.00
2018-10-21T15:52:47.719Z,16.27
2018-10-21T15:55:23.905Z,16.40
2018-10-21T15:57:59.420Z,15.58
2018-10-21T16:00:34.852Z,16.60
2018-10-21T16:03:10.261Z,15.90
2018-10-21T16:05:46.089Z,16.73
2018-10-21T16:08:21.801Z,16.90
2018-10-21T16:10:57.328Z,15.78
2018-10-21T16:13:32.673Z,16.77
2018-10-21T16:16:08.456Z,16.12
2018-10-21T16:18:43.757Z,15.98
2018-10-21T16:21:19.194Z,15.30
2018-10-21T16:23:54.504Z,15.75
2018-10-21T16:26:30.011Z,16.62
2018-10-21T16:29:05.608Z,20.45
2018-10-21T16:31:41.016Z,19.80
2018-10-21T16:34:16.836Z,19.70
2018-10-21T16:36:52.384Z,17.70
2018-10-21T16:39:27.677Z,18.10
2018-10-21T16:42:03.383Z,19.27
2018-10-21T16:44:39.005Z,19.73
2018-10-21T16:47:14.642Z,20.43
2018-10-21T16:49:50.211Z,20.60
2018-10-21T16:52:25.828Z,21.60
2018-10-21T16:55:01.345Z,19.60
2018-10-21T16:57:37.115Z,22.22
2018-10-21T17:00:14.802Z,23.18
2018-10-21T17:02:50.299Z,19.62
2018-10-21T17:05:25.829Z,29.95
2018-10-21T17:08:01.456Z,22.50
2018-10-21T17:10:37.062Z,22.10
2018-10-21T17:13:12.338Z,21.52
2018-10-21T17:15:47.726Z,22.58
2018-10-21T17:18:25.217Z,21.48
2018-10-21T17:21:00.645Z,22.15
2018-10-21T17:23:36.220Z,20.30
2018-10-21T17:26:11.869Z,20.52
2018-10-21T17:28:47.285Z,20.57
2018-10-21T17:31:22.785Z,22.17
2018-10-21T17:33:58.371Z,22.80
2018-10-21T17:36:34.150Z,21.42
2018-10-21T17:39:13.431Z,20.45
2018-10-21T17:41:49.064Z,20.85
2018-10-21T17:44:24.573Z,20.23
2018-10-21T17:47:00.128Z,21.15
2018-10-21T17:49:35.598Z,21.20
2018-10-21T17:52:11.183Z,21.87
2018-10-21T17:54:46.629Z,24.82
2018-10-21T17:57:22.170Z,23.75
2018-10-21T17:59:57.709Z,21.12
2018-10-21T18:02:33.135Z,22.35
2018-10-21T18:05:11.060Z,21.75
2018-10-21T18:07:46.587Z,20.27
2018-10-21T18:10:28.541Z,21.33
2018-10-21T18:13:04.139Z,21.23
2018-10-21T18:15:39.757Z,19.80
2018-10-21T18:18:15.227Z,19.77
2018-10-21T18:20:50.753Z,18.82
2018-10-21T18:23:26.119Z,19.37
2018-10-21T18:26:01.679Z,20.23
2018-10-21T18:28:37.096Z,19.17
2018-10-21T18:31:12.922Z,21.30
2018-10-21T18:33:48.438Z,17.48
2018-10-21T18:36:24.121Z,19.45
2018-10-21T18:38:59.649Z,17.48
2018-10-21T18:41:35.320Z,17.50
2018-10-21T18:44:10.684Z,17.95
2018-10-21T18:46:46.313Z,17.45
2018-10-21T18:49:21.694Z,18.37
2018-10-21T18:51:57.147Z,17.90
2018-10-21T18:54:32.639Z,17.45
2018-10-21T18:57:08.128Z,17.85
2018-10-21T18:59:43.739Z,16.60
2018-10-21T19:02:19.369Z,19.27
2018-10-21T19:04:55.262Z,17.67
2018-10-21T19:07:30.917Z,18.42
2018-10-21T19:10:08.544Z,17.98
2018-10-21T19:12:44.413Z,18.42
2018-10-21T19:15:19.849Z,18.85
2018-10-21T19:17:55.392Z,17.30
2018-10-21T19:20:30.922Z,21.12
2018-10-21T19:23:06.680Z,16.85
2018-10-21T19:25:42.052Z,16.67
2018-10-21T19:28:17.901Z,16.20
2018-10-21T19:30:53.221Z,19.42
2018-10-21T19:33:28.752Z,20.02
2018-10-21T19:36:04.329Z,15.40
2018-10-21T19:38:40.063Z,16.02
2018-10-21T19:41:15.415Z,16.48
2018-10-21T19:43:51.083Z,14.80
2018-10-21T19:46:26.503Z,13.53
2018-10-21T19:49:02.244Z,15.90
2018-10-21T19:51:37.595Z,18.92
2018-10-21T19:54:13.081Z,13.30
2018-10-21T19:56:48.287Z,14.70
2018-10-21T19:59:23.840Z,13.83
2018-10-21T20:01:59.303Z,14.20
2018-10-21T20:04:34.928Z,13.22
2018-10-21T20:07:10.468Z,13.13
2018-10-21T20:09:45.781Z,14.00
2018-10-21T20:12:21.459Z,15.63
2018-10-21T20:14:56.967Z,12.60
2018-10-21T20:17:32.500Z,13.80
2018-10-21T20:20:09.146Z,13.10
2018-10-21T20:22:44.716Z,16.70
2018-10-21T20:25:20.533Z,13.72
2018-10-21T20:27:55.979Z,13.15
2018-10-21T20:30:31.523Z,13.83
2018-10-21T20:33:07.137Z,14.45
2018-10-21T20:35:42.601Z,14.30
2018-10-21T20:38:18.217Z,13.20
2018-10-21T20:40:53.590Z,14.30
2018-10-21T20:43:29.142Z,13.78
2018-10-21T20:46:05.178Z,13.48
2018-10-21T20:48:40.596Z,14.10
2018-10-21T20:51:16.295Z,12.37
2018-10-21T20:53:51.657Z,20.10
2018-10-21T20:56:27.149Z,16.93
2018-10-21T20:59:02.507Z,12.13
2018-10-21T21:01:38.017Z,12.23
2018-10-21T21:04:13.484Z,15.93
2018-10-21T21:06:48.784Z,13.35
2018-10-21T21:09:24.212Z,12.60
2018-10-21T21:11:59.655Z,13.80
2018-10-21T21:14:35.273Z,15.43
2018-10-21T21:17:10.845Z,17.85
2018-10-21T21:19:46.119Z,15.93
2018-10-21T21:22:22.161Z,17.90
2018-10-21T21:24:57.621Z,14.85
2018-10-21T21:27:33.145Z,14.53
2018-10-21T21:30:08.520Z,15.43
2018-10-21T21:32:44.056Z,16.37
2018-10-21T21:35:19.389Z,15.80
2018-10-21T21:37:54.989Z,16.73
2018-10-21T21:40:30.161Z,16.95
2018-10-21T21:43:06.222Z,16.80
2018-10-21T21:45:41.540Z,17.95
2018-10-21T21:48:17.170Z,17.60
2018-10-21T21:50:52.564Z,18.37
2018-10-21T21:53:28.301Z,18.32
2018-10-21T21:56:03.830Z,20.15
2018-10-21T21:58:39.455Z,17.75
2018-10-21T22:01:14.782Z,18.45
2018-10-21T22:03:50.413Z,17.92
2018-10-21T22:06:25.660Z,18.82
2018-10-21T22:09:01.278Z,19.98
2018-10-21T22:11:36.830Z,18.98
2018-10-21T22:14:12.476Z,20.12
2018-10-21T22:16:47.828Z,19.55
2018-10-21T22:19:23.889Z,20.55
2018-10-21T22:21:59.377Z,19.95
2018-10-21T22:24:34.804Z,24.15
2018-10-21T22:27:10.126Z,22.65
2018-10-21T22:29:45.828Z,20.82
2018-10-21T22:32:21.244Z,20.90
2018-10-21T22:34:56.764Z,19.77
2018-10-21T22:37:32.299Z,20.17
2018-10-21T22:40:08.502Z,20.52
2018-10-21T22:42:43.815Z,20.37
2018-10-21T22:45:19.572Z,19.55
2018-10-21T22:47:54.927Z,20.15
2018-10-21T22:50:30.382Z,20.10
2018-10-21T22:53:05.982Z,21.05
2018-10-21T22:55:41.678Z,19.92
2018-10-21T22:58:17.311Z,21.30
2018-10-21T23:00:52.895Z,20.80
2018-10-21T23:03:28.981Z,20.65
2018-10-21T23:06:04.538Z,20.75
2018-10-21T23:08:39.953Z,21.65
2018-10-21T23:11:15.440Z,21.73
2018-10-21T23:13:50.933Z,22.17
2018-10-21T23:16:26.448Z,22.15
2018-10-21T23:19:18.932Z,22.30
2018-10-21T23:21:54.773Z,20.97
2018-10-21T23:24:30.280Z,21.90
2018-10-21T23:27:05.838Z,23.75
2018-10-21T23:29:42.098Z,22.77
2018-10-21T23:32:17.517Z,22.15
2018-10-21T23:34:53.053Z,22.70
2018-10-21T23:37:28.549Z,20.77
2018-10-21T23:40:04.121Z,23.73
2018-10-21T23:42:39.537Z,21.35
2018-10-21T23:45:14.964Z,20.48
2018-10-21T23:47:50.647Z,19.55
2018-10-21T23:50:26.106Z,19.27
2018-10-21T23:53:01.821Z,20.90
2018-10-21T23:55:37.305Z,18.65
2018-10-21T23:58:12.877Z,19.27
